Time;durP1;ratioP1;P1;durP2;ratioP2;P2;SDS_P1;SDS_P2;PMS_P1;PMS_P2;Temp;Humidity;BMP_temperature;BMP_pressure;BME280_temperature;BME280_humidity;BME280_pressure;Samples;Min_cycle;Max_cycle;Signal;HPM_P1;HPM_P2
2023/04/19 00:01:36;;;;;;;7.65;5.80;;;8.60;99.90;;;;;;5056067;28;20049;-75
2023/04/19 00:04:02;;;;;;;8.40;5.70;;;8.60;99.90;;;;;;5055447;28;20049;-75
2023/04/19 00:06:29;;;;;;;7.80;5.63;;;8.60;99.90;;;;;;5055477;28;20041;-75
2023/04/19 00:08:56;;;;;;;10.32;5.50;;;8.60;99.90;;;;;;5055509;28;20040;-75
2023/04/19 00:11:22;;;;;;;7.78;5.47;;;8.60;99.90;;;;;;5055251;28;20535;-75
2023/04/19 00:13:48;;;;;;;7.45;5.00;;;8.60;99.90;;;;;;5055128;28;20140;-75
2023/04/19 00:16:15;;;;;;;9.68;5.63;;;8.50;99.90;;;;;;5055085;28;20141;-75
2023/04/19 00:18:41;;;;;;;9.00;5.70;;;8.50;99.90;;;;;;5056052;28;20059;-75
2023/04/19 00:21:07;;;;;;;7.95;5.07;;;8.50;99.90;;;;;;5055535;28;20122;-76
2023/04/19 00:23:33;;;;;;;9.00;5.38;;;8.40;99.90;;;;;;5055241;28;20492;-75
2023/04/19 00:26:02;;;;;;;8.45;5.35;;;8.40;99.90;;;;;;5055011;28;20102;-75
2023/04/19 00:28:28;;;;;;;7.28;5.10;;;8.40;99.90;;;;;;5055656;28;20102;-75
2023/04/19 00:30:54;;;;;;;6.97;5.47;;;8.40;99.90;;;;;;5055123;28;20129;-76
2023/04/19 00:33:19;;;;;;;7.10;5.35;;;8.40;99.90;;;;;;5054985;28;20056;-76
2023/04/19 00:35:45;;;;;;;7.97;4.90;;;8.40;99.90;;;;;;5055466;28;20048;-76
2023/04/19 00:38:11;;;;;;;9.05;5.50;;;8.40;99.90;;;;;;5055486;28;20358;-75
2023/04/19 00:40:37;;;;;;;6.65;4.82;;;8.40;99.90;;;;;;5055354;28;20051;-75
2023/04/19 00:43:03;;;;;;;7.97;5.47;;;8.40;99.90;;;;;;5054856;28;20037;-74
2023/04/19 00:45:30;;;;;;;7.80;5.13;;;8.30;99.90;;;;;;5053541;28;20110;-75
2023/04/19 00:47:55;;;;;;;7.93;5.03;;;8.40;99.90;;;;;;5054860;28;20053;-75
2023/04/19 00:50:21;;;;;;;6.90;4.82;;;8.40;99.90;;;;;;5054703;28;20041;-75
2023/04/19 00:52:47;;;;;;;7.07;4.75;;;8.40;99.90;;;;;;5054719;28;20045;-75
2023/04/19 00:55:13;;;;;;;6.75;4.80;;;8.30;99.90;;;;;;5054565;28;20037;-75
2023/04/19 00:57:39;;;;;;;7.55;4.22;;;8.40;99.90;;;;;;5037733;28;20052;-75
2023/04/19 01:00:08;;;;;;;7.72;4.80;;;8.40;99.90;;;;;;5055360;28;20040;-75
2023/04/19 01:02:35;;;;;;;6.88;4.82;;;8.40;99.90;;;;;;5053578;28;20394;-76
2023/04/19 01:05:00;;;;;;;7.18;4.53;;;8.40;99.90;;;;;;5053755;28;20109;-75
2023/04/19 01:07:27;;;;;;;6.05;4.60;;;8.40;99.90;;;;;;5054380;28;20503;-76
2023/04/19 01:09:52;;;;;;;7.22;4.80;;;8.40;99.90;;;;;;5054833;28;20051;-75
2023/04/19 01:12:18;;;;;;;7.47;4.68;;;8.30;99.90;;;;;;5053024;28;20044;-75
2023/04/19 01:14:44;;;;;;;7.88;4.78;;;8.10;99.90;;;;;;5054648;28;20045;-75
2023/04/19 01:17:12;;;;;;;6.15;4.30;;;8.20;99.90;;;;;;5054687;28;20477;-76
2023/04/19 01:19:38;;;;;;;6.97;5.03;;;8.20;99.90;;;;;;5054192;28;20178;-75
2023/04/19 01:22:05;;;;;;;7.88;4.90;;;8.20;99.90;;;;;;5054105;28;20057;-76
2023/04/19 01:24:31;;;;;;;6.85;4.32;;;8.10;99.90;;;;;;5054087;28;20420;-75
2023/04/19 01:26:56;;;;;;;7.57;4.65;;;8.10;99.90;;;;;;5053955;28;20051;-76
2023/04/19 01:29:22;;;;;;;7.57;4.68;;;8.10;99.90;;;;;;5052699;28;20049;-75
2023/04/19 01:31:52;;;;;;;7.55;4.95;;;8.10;99.90;;;;;;5054530;28;20049;-75
2023/04/19 01:34:24;;;;;;;6.68;4.85;;;8.10;99.90;;;;;;5054106;28;20060;-74
2023/04/19 01:36:50;;;;;;;7.22;4.85;;;8.10;99.90;;;;;;5053365;28;20052;-76
2023/04/19 01:39:16;;;;;;;8.15;5.40;;;8.10;99.90;;;;;;5052875;28;20041;-75
2023/04/19 01:41:42;;;;;;;5.68;4.05;;;8.00;99.90;;;;;;5052570;28;20040;-76
2023/04/19 01:44:07;;;;;;;7.22;5.00;;;8.00;99.90;;;;;;5053617;28;20075;-75
2023/04/19 01:46:33;;;;;;;6.78;4.53;;;8.00;99.90;;;;;;5052989;28;20128;-75
2023/04/19 01:48:59;;;;;;;7.22;4.97;;;8.00;99.90;;;;;;5052705;28;20052;-75
2023/04/19 01:51:25;;;;;;;7.53;5.28;;;7.90;99.90;;;;;;5054196;28;20381;-75
2023/04/19 01:53:52;;;;;;;8.77;5.43;;;7.90;99.90;;;;;;5053571;28;20047;-76
2023/04/19 01:56:19;;;;;;;7.18;4.60;;;7.90;99.90;;;;;;5053444;28;20045;-75
2023/04/19 01:58:45;;;;;;;8.48;5.40;;;7.90;99.90;;;;;;5053965;28;20045;-75
2023/04/19 02:01:11;;;;;;;7.43;4.68;;;7.80;99.90;;;;;;5053379;28;20418;-76
2023/04/19 02:03:40;;;;;;;6.22;4.50;;;7.80;99.90;;;;;;5053413;28;20532;-74
2023/04/19 02:06:11;;;;;;;6.60;4.57;;;7.80;99.90;;;;;;5053918;28;20041;-74
2023/04/19 02:08:37;;;;;;;9.40;4.72;;;7.80;99.90;;;;;;5052311;28;20049;-74
2023/04/19 02:11:13;;;;;;;5.63;4.38;;;7.80;99.90;;;;;;5053468;28;20473;-75
2023/04/19 02:13:39;;;;;;;6.87;4.20;;;7.80;99.90;;;;;;5053658;28;20041;-75
2023/04/19 02:16:05;;;;;;;8.32;4.88;;;7.70;99.90;;;;;;5053103;28;20303;-75
2023/04/19 02:18:31;;;;;;;7.30;4.65;;;7.70;99.90;;;;;;5053721;28;20044;-74
2023/04/19 02:21:00;;;;;;;6.07;4.70;;;7.70;99.90;;;;;;5053240;28;20037;-75
2023/04/19 02:23:26;;;;;;;7.85;5.32;;;7.70;99.90;;;;;;5053454;28;20056;-75
2023/04/19 02:25:52;;;;;;;7.00;4.25;;;7.70;99.90;;;;;;5053156;28;20040;-76
2023/04/19 02:28:18;;;;;;;7.15;4.82;;;7.60;99.90;;;;;;5053104;28;20167;-75
2023/04/19 02:30:44;;;;;;;7.82;5.38;;;7.50;99.90;;;;;;5053088;28;20091;-73
2023/04/19 02:33:09;;;;;;;7.50;4.30;;;7.60;99.90;;;;;;5053349;28;20045;-74
2023/04/19 02:35:35;;;;;;;7.63;4.57;;;7.50;99.90;;;;;;5052153;28;20504;-74
2023/04/19 02:38:02;;;;;;;7.93;4.88;;;7.40;99.90;;;;;;5053073;28;20477;-74
2023/04/19 02:40:28;;;;;;;7.15;5.03;;;7.40;99.90;;;;;;5053018;28;20090;-74
2023/04/19 02:42:54;;;;;;;8.77;5.60;;;7.30;99.90;;;;;;5052920;28;20393;-74
2023/04/19 02:45:20;;;;;;;7.78;5.43;;;7.20;99.90;;;;;;5035261;28;20110;-74
2023/04/19 02:47:45;;;;;;;6.38;4.47;;;7.10;99.90;;;;;;5052687;28;20056;-74
2023/04/19 02:50:12;;;;;;;6.85;4.90;;;7.00;99.90;;;;;;5056678;28;20047;-74
2023/04/19 02:52:38;;;;;;;7.40;4.80;;;6.90;99.90;;;;;;5058031;28;20045;-73
2023/04/19 02:55:05;;;;;;;6.60;4.38;;;6.90;99.90;;;;;;5057457;28;20041;-75
2023/04/19 02:57:31;;;;;;;7.20;4.53;;;6.90;99.90;;;;;;5055682;28;20393;-75
2023/04/19 02:59:57;;;;;;;6.85;4.97;;;6.80;99.90;;;;;;5056549;28;20056;-74
2023/04/19 03:02:24;;;;;;;6.65;5.07;;;6.80;99.90;;;;;;5056766;28;20049;-75
2023/04/19 03:04:50;;;;;;;8.68;5.05;;;6.70;99.90;;;;;;5039936;28;20167;-74
2023/04/19 03:07:15;;;;;;;6.45;4.78;;;6.70;99.90;;;;;;5056686;28;20045;-74
2023/04/19 03:09:41;;;;;;;8.65;4.75;;;6.70;99.90;;;;;;5056607;28;20052;-76
2023/04/19 03:12:07;;;;;;;7.75;4.72;;;6.70;99.90;;;;;;5056737;28;20076;-75
2023/04/19 03:14:33;;;;;;;8.15;4.80;;;6.60;99.90;;;;;;5056437;28;20053;-75
2023/04/19 03:16:59;;;;;;;8.25;5.05;;;6.50;99.90;;;;;;5057231;28;20435;-74
2023/04/19 03:19:24;;;;;;;7.85;4.95;;;6.50;99.90;;;;;;5056479;28;20057;-75
2023/04/19 03:21:50;;;;;;;9.05;5.20;;;6.40;99.90;;;;;;5056656;28;20071;-76
2023/04/19 03:24:18;;;;;;;8.48;4.88;;;6.40;99.90;;;;;;5056329;28;20053;-74
2023/04/19 03:26:44;;;;;;;6.95;4.90;;;6.30;99.90;;;;;;5057045;28;20095;-75
2023/04/19 03:29:09;;;;;;;9.30;5.40;;;6.30;99.90;;;;;;5056124;28;20385;-75
2023/04/19 03:31:36;;;;;;;7.85;5.13;;;6.20;99.90;;;;;;5056059;28;20067;-76
2023/04/19 03:34:02;;;;;;;8.95;5.18;;;6.20;99.90;;;;;;5056187;28;20091;-75
2023/04/19 03:36:28;;;;;;;7.38;5.10;;;6.20;99.90;;;;;;5055132;28;20080;-75
2023/04/19 03:38:53;;;;;;;7.25;5.00;;;6.20;99.90;;;;;;5056106;28;20045;-75
2023/04/19 03:41:26;;;;;;;6.70;4.38;;;6.10;99.90;;;;;;5056074;28;20503;-74
2023/04/19 03:43:51;;;;;;;8.38;5.03;;;6.20;99.90;;;;;;5056072;28;20053;-76
2023/04/19 03:46:17;;;;;;;7.38;4.88;;;6.10;99.90;;;;;;5055940;28;20049;-74
2023/04/19 03:48:43;;;;;;;9.27;4.60;;;6.10;99.90;;;;;;5054964;28;20037;-74
2023/04/19 03:51:08;;;;;;;6.35;4.70;;;6.10;99.90;;;;;;5055584;28;20052;-74
2023/04/19 03:53:35;;;;;;;7.35;4.93;;;6.00;99.90;;;;;;5056309;28;20053;-74
2023/04/19 03:56:00;;;;;;;8.38;4.90;;;5.90;99.90;;;;;;5055615;28;20144;-74
2023/04/19 03:58:26;;;;;;;6.72;4.43;;;5.90;99.90;;;;;;5056209;28;20053;-74
2023/04/19 04:00:52;;;;;;;7.00;4.82;;;5.90;99.90;;;;;;5055626;28;20045;-75
2023/04/19 04:03:18;;;;;;;6.93;4.43;;;5.80;99.90;;;;;;5055377;28;20505;-75
2023/04/19 04:05:44;;;;;;;6.68;4.43;;;5.70;99.90;;;;;;5055514;28;20048;-74
2023/04/19 04:08:10;;;;;;;6.50;4.00;;;5.60;99.90;;;;;;5054343;28;20092;-74
2023/04/19 04:10:35;;;;;;;7.47;4.80;;;5.50;99.90;;;;;;5054487;28;20049;-74
2023/04/19 04:13:01;;;;;;;8.35;4.43;;;5.40;99.90;;;;;;5037378;28;20652;-75
2023/04/19 04:15:27;;;;;;;7.32;4.50;;;5.40;99.90;;;;;;5055053;28;20060;-73
2023/04/19 04:17:52;;;;;;;8.43;5.00;;;5.30;99.90;;;;;;5055456;28;20440;-75
2023/04/19 04:20:18;;;;;;;6.38;4.32;;;5.30;99.90;;;;;;5055066;28;20075;-74
2023/04/19 04:22:47;;;;;;;5.72;3.72;;;5.10;99.90;;;;;;5054904;28;20058;-75
2023/04/19 04:25:14;;;;;;;6.63;4.35;;;5.10;99.90;;;;;;5054874;28;20098;-74
2023/04/19 04:27:42;;;;;;;6.28;4.18;;;5.10;99.90;;;;;;5055559;28;20083;-74
2023/04/19 04:30:09;;;;;;;6.75;4.07;;;5.20;99.90;;;;;;5055163;28;20052;-74
2023/04/19 04:32:36;;;;;;;6.13;4.40;;;5.00;99.90;;;;;;5055028;28;20052;-75
2023/04/19 04:35:06;;;;;;;6.32;4.25;;;5.00;99.90;;;;;;5054953;28;20049;-74
2023/04/19 04:37:32;;;;;;;5.97;4.28;;;4.90;99.90;;;;;;5054477;28;20382;-73
2023/04/19 04:40:00;;;;;;;6.97;4.43;;;4.90;99.90;;;;;;5054961;28;20552;-74
2023/04/19 04:42:26;;;;;;;6.20;4.05;;;5.00;99.90;;;;;;5054925;28;20118;-74
2023/04/19 04:44:52;;;;;;;6.88;4.40;;;4.90;99.90;;;;;;5055509;28;20491;-74
2023/04/19 04:47:20;;;;;;;6.40;4.40;;;4.80;99.90;;;;;;5054797;28;20044;-74
2023/04/19 04:49:45;;;;;;;6.85;4.57;;;4.70;99.90;;;;;;5053825;28;20102;-73
2023/04/19 04:52:11;;;;;;;7.40;4.78;;;4.70;99.90;;;;;;5054476;28;20459;-74
2023/04/19 04:54:37;;;;;;;6.63;4.47;;;4.60;99.90;;;;;;5054743;28;20045;-74
2023/04/19 04:57:02;;;;;;;6.43;4.25;;;4.60;99.90;;;;;;5054586;28;20465;-73
2023/04/19 04:59:28;;;;;;;6.40;4.40;;;4.50;99.90;;;;;;5037273;28;20102;-73
2023/04/19 05:01:54;;;;;;;6.20;4.15;;;4.70;99.90;;;;;;5055003;28;20385;-74
2023/04/19 05:04:20;;;;;;;7.53;4.18;;;4.50;99.90;;;;;;5054471;28;20076;-74
2023/04/19 05:06:45;;;;;;;6.82;4.88;;;4.50;99.90;;;;;;5054273;28;20053;-74
2023/04/19 05:09:11;;;;;;;6.57;4.43;;;4.50;99.90;;;;;;5054955;28;20407;-74
2023/04/19 05:11:37;;;;;;;5.53;3.83;;;4.60;99.90;;;;;;5053607;28;20444;-75
2023/04/19 05:14:03;;;;;;;7.05;4.50;;;4.70;99.90;;;;;;5054390;28;20044;-74
2023/04/19 05:16:29;;;;;;;7.90;3.78;;;4.70;99.90;;;;;;5054573;28;20055;-75
2023/04/19 05:18:55;;;;;;;8.52;4.60;;;4.80;99.90;;;;;;5053927;28;20052;-75
2023/04/19 05:21:21;;;;;;;5.25;3.53;;;4.80;99.90;;;;;;5053171;28;20052;-74
2023/04/19 05:23:47;;;;;;;7.75;4.35;;;4.90;99.90;;;;;;5053168;28;20147;-75
2023/04/19 05:26:14;;;;;;;6.32;4.00;;;5.00;99.90;;;;;;5052946;28;20501;-74
2023/04/19 05:28:42;;;;;;;7.25;4.57;;;5.00;99.90;;;;;;5053934;28;20047;-75
2023/04/19 05:31:08;;;;;;;6.38;3.95;;;5.10;99.90;;;;;;5054114;28;20090;-75
2023/04/19 05:33:34;;;;;;;6.47;3.92;;;5.20;99.90;;;;;;5054683;28;20128;-75
2023/04/19 05:35:59;;;;;;;4.72;3.47;;;5.40;99.90;;;;;;5053912;28;20045;-75
2023/04/19 05:38:25;;;;;;;6.60;3.90;;;5.60;99.90;;;;;;5054003;28;20049;-76
2023/04/19 05:40:50;;;;;;;5.60;3.72;;;5.60;99.90;;;;;;5053576;28;20088;-76
2023/04/19 05:43:16;;;;;;;5.78;3.40;;;5.70;99.90;;;;;;5054195;28;20048;-74
2023/04/19 05:45:42;;;;;;;5.03;3.47;;;5.80;99.90;;;;;;5054067;28;20037;-75
2023/04/19 05:48:07;;;;;;;6.90;3.40;;;6.00;99.90;;;;;;5053057;28;20500;-76
2023/04/19 05:50:35;;;;;;;5.57;3.53;;;6.00;99.90;;;;;;5053796;28;20048;-75
2023/04/19 05:53:02;;;;;;;6.90;3.55;;;6.20;99.90;;;;;;5053651;28;20045;-76
2023/04/19 05:55:27;;;;;;;5.15;3.35;;;6.30;99.90;;;;;;5053676;28;20458;-75
2023/04/19 05:57:53;;;;;;;5.47;3.05;;;6.40;99.90;;;;;;5053685;28;20040;-76
2023/04/19 06:00:19;;;;;;;5.97;3.95;;;6.50;99.90;;;;;;5053726;28;20048;-75
2023/04/19 06:02:45;;;;;;;5.80;3.10;;;6.60;99.90;;;;;;5053648;28;20095;-76
2023/04/19 06:05:11;;;;;;;5.07;3.05;;;6.70;99.90;;;;;;5053589;28;20442;-76
2023/04/19 06:07:37;;;;;;;9.02;3.65;;;6.80;99.90;;;;;;5052314;28;20045;-75
2023/04/19 06:10:03;;;;;;;4.55;3.08;;;6.90;99.90;;;;;;5053542;28;20119;-76
2023/04/19 06:12:28;;;;;;;4.70;2.67;;;7.00;99.90;;;;;;5053466;28;20499;-74
2023/04/19 06:14:54;;;;;;;4.90;2.78;;;7.10;99.90;;;;;;5052334;28;20067;-76
2023/04/19 06:17:23;;;;;;;3.65;2.60;;;7.20;99.90;;;;;;5053186;28;20053;-77
2023/04/19 06:19:49;;;;;;;4.72;3.00;;;7.30;99.90;;;;;;5053985;28;20140;-79
2023/04/19 06:22:15;;;;;;;4.72;2.85;;;7.30;99.90;;;;;;5052959;28;20485;-78
2023/04/19 06:24:43;;;;;;;4.90;2.95;;;7.40;99.90;;;;;;5053302;28;20049;-78
2023/04/19 06:27:08;;;;;;;5.03;2.70;;;7.40;99.90;;;;;;5053242;28;20051;-77
2023/04/19 06:29:34;;;;;;;5.40;2.88;;;7.50;99.90;;;;;;5053243;28;20049;-78
2023/04/19 06:32:00;;;;;;;3.95;2.75;;;7.60;99.90;;;;;;5053236;28;20048;-78
2023/04/19 06:34:25;;;;;;;3.97;2.85;;;7.60;99.90;;;;;;5053598;28;20425;-79
2023/04/19 06:36:51;;;;;;;3.83;2.50;;;7.70;99.90;;;;;;5053584;28;20044;-77
2023/04/19 06:39:17;;;;;;;5.03;2.83;;;7.70;99.90;;;;;;5053249;28;20382;-79
2023/04/19 06:41:42;;;;;;;4.55;2.88;;;7.90;99.90;;;;;;5053544;28;20081;-77
2023/04/19 06:44:08;;;;;;;5.68;3.15;;;7.90;99.90;;;;;;5053148;28;20087;-77
2023/04/19 06:46:34;;;;;;;4.88;2.83;;;7.90;99.90;;;;;;5053267;28;20037;-78
2023/04/19 06:48:59;;;;;;;4.13;2.92;;;8.00;99.90;;;;;;5051934;28;20045;-77
2023/04/19 06:51:25;;;;;;;4.72;2.53;;;8.00;99.90;;;;;;5053090;28;20041;-79
2023/04/19 06:53:51;;;;;;;5.35;3.15;;;8.20;99.90;;;;;;5053545;28;20051;-78
2023/04/19 06:56:17;;;;;;;3.97;2.45;;;8.20;99.90;;;;;;5052353;28;20110;-76
2023/04/19 06:58:42;;;;;;;5.65;2.80;;;8.20;99.90;;;;;;5052669;28;20051;-78
2023/04/19 07:01:08;;;;;;;4.70;2.80;;;8.30;99.90;;;;;;5053500;28;20044;-76
2023/04/19 07:03:34;;;;;;;5.07;2.10;;;8.40;99.90;;;;;;5052051;28;20051;-78
2023/04/19 07:06:00;;;;;;;4.63;2.40;;;8.40;99.90;;;;;;5053011;28;20098;-77
2023/04/19 07:08:26;;;;;;;4.65;2.53;;;8.50;99.90;;;;;;5052850;28;20045;-78
2023/04/19 07:10:52;;;;;;;3.97;2.00;;;8.60;99.90;;;;;;5052810;28;20056;-78
2023/04/19 07:13:18;;;;;;;4.03;2.30;;;8.70;99.90;;;;;;5052858;28;20132;-79
2023/04/19 07:15:44;;;;;;;3.63;2.10;;;8.80;99.90;;;;;;5051921;28;20092;-80
2023/04/19 07:18:10;;;;;;;2.90;2.00;;;8.90;99.90;;;;;;5054948;28;20470;-78
2023/04/19 07:20:35;;;;;;;4.13;2.20;;;9.00;99.90;;;;;;5054771;28;20212;-76
2023/04/19 07:23:01;;;;;;;3.17;2.15;;;9.00;99.90;;;;;;5054309;28;20063;-79
2023/04/19 07:25:27;;;;;;;3.47;1.92;;;9.10;99.90;;;;;;5053324;28;20056;-84
2023/04/19 07:27:53;;;;;;;3.78;2.08;;;9.20;99.90;;;;;;5052423;28;20045;-80
2023/04/19 07:30:19;;;;;;;2.70;1.90;;;9.20;99.90;;;;;;5051723;28;20053;-76
2023/04/19 07:32:45;;;;;;;3.10;2.13;;;9.30;99.90;;;;;;5052577;28;20392;-81
2023/04/19 07:35:11;;;;;;;3.40;2.20;;;9.40;99.90;;;;;;5054414;28;20045;-78
2023/04/19 07:37:37;;;;;;;3.33;1.85;;;9.50;99.90;;;;;;5056319;28;20045;-77
2023/04/19 07:40:04;;;;;;;3.72;1.83;;;9.60;99.90;;;;;;5056004;28;20085;-82
2023/04/19 07:42:29;;;;;;;4.15;1.80;;;9.80;99.90;;;;;;5055761;28;20111;-78
2023/04/19 07:44:56;;;;;;;4.43;2.60;;;9.90;99.90;;;;;;5055939;28;20045;-79
2023/04/19 07:47:21;;;;;;;4.65;2.65;;;9.90;99.90;;;;;;5056030;28;20124;-79
2023/04/19 07:49:51;;;;;;;4.40;2.03;;;10.00;99.90;;;;;;5055240;28;20470;-82
2023/04/19 07:52:17;;;;;;;3.75;2.25;;;10.10;99.90;;;;;;5055353;28;20488;-81
2023/04/19 07:54:43;;;;;;;4.15;2.03;;;10.20;99.90;;;;;;5056274;28;20095;-82
2023/04/19 07:57:08;;;;;;;2.83;1.85;;;10.30;99.90;;;;;;5054668;28;20098;-81
2023/04/19 07:59:34;;;;;;;4.07;2.20;;;10.40;99.90;;;;;;5056179;28;20052;-80
2023/04/19 08:02:00;;;;;;;3.00;2.00;;;10.40;99.90;;;;;;5055753;28;20545;-82
2023/04/19 08:04:25;;;;;;;3.90;2.10;;;10.50;99.90;;;;;;5055676;28;20076;-80
2023/04/19 08:06:51;;;;;;;3.05;2.05;;;10.60;99.90;;;;;;5055704;28;20048;-82
2023/04/19 08:09:18;;;;;;;3.13;1.83;;;10.60;99.90;;;;;;5055851;28;20499;-79
2023/04/19 08:11:43;;;;;;;4.13;2.30;;;10.70;99.90;;;;;;5055198;28;20583;-80
2023/04/19 08:14:09;;;;;;;4.30;1.98;;;10.80;99.90;;;;;;5055325;28;20045;-85
2023/04/19 08:16:36;;;;;;;5.18;2.50;;;10.90;99.90;;;;;;5055041;28;20049;-77
2023/04/19 08:19:01;;;;;;;3.58;2.20;;;11.00;99.90;;;;;;5055378;28;20052;-80
2023/04/19 08:21:27;;;;;;;4.47;2.08;;;11.20;99.90;;;;;;5054227;28;20131;-80
2023/04/19 08:23:53;;;;;;;4.32;2.60;;;11.30;99.90;;;;;;5054426;28;20204;-80
2023/04/19 08:26:18;;;;;;;6.22;2.42;;;11.30;99.90;;;;;;5055431;28;20041;-83
2023/04/19 08:28:44;;;;;;;3.22;2.10;;;11.30;99.90;;;;;;5055070;28;20040;-75
2023/04/19 08:31:10;;;;;;;6.03;2.25;;;11.40;99.90;;;;;;5055132;28;20041;-76
2023/04/19 08:33:36;;;;;;;3.58;2.72;;;11.50;99.90;;;;;;5055314;28;20056;-86
2023/04/19 08:36:01;;;;;;;3.38;2.10;;;11.60;99.90;;;;;;5055522;28;20091;-90
2023/04/19 08:38:27;;;;;;;2.80;2.10;;;11.60;99.90;;;;;;5055127;28;20057;-81
2023/04/19 08:40:56;;;;;;;3.47;2.08;;;11.70;99.90;;;;;;5055115;28;20478;-75
2023/04/19 08:43:24;;;;;;;3.83;1.90;;;11.70;99.90;;;;;;5054826;28;20143;-78
2023/04/19 08:45:51;;;;;;;2.80;2.05;;;11.80;99.90;;;;;;5054885;28;20052;-82
2023/04/19 08:48:17;;;;;;;4.72;2.10;;;11.90;99.90;;;;;;5055136;28;20160;-82
2023/04/19 08:50:47;;;;;;;3.45;2.10;;;12.00;99.90;;;;;;5055467;28;20102;-83
2023/04/19 08:53:13;;;;;;;4.65;1.75;;;12.10;99.90;;;;;;5055477;28;20063;-86
2023/04/19 08:55:40;;;;;;;3.88;2.10;;;12.30;99.90;;;;;;5054718;28;20096;-76
2023/04/19 08:58:06;;;;;;;3.63;1.80;;;12.40;99.90;;;;;;5054859;28;20573;-78
2023/04/19 09:00:33;;;;;;;3.30;2.00;;;12.60;99.90;;;;;;5054527;28;20131;-80
2023/04/19 09:02:59;;;;;;;3.20;2.00;;;12.70;99.90;;;;;;5054329;28;20132;-80
2023/04/19 09:05:24;;;;;;;4.88;2.20;;;12.80;99.90;;;;;;5055180;28;20037;-80
2023/04/19 09:07:50;;;;;;;5.03;1.80;;;12.80;99.90;;;;;;5054468;28;20098;-81
2023/04/19 09:10:20;;;;;;;2.72;1.88;;;12.80;99.90;;;;;;5054732;28;20055;-82
2023/04/19 09:13:18;;;;;;;3.08;1.90;;;12.80;99.90;;;;;;5054420;28;20400;-79
2023/04/19 09:15:44;;;;;;;2.70;1.63;;;12.80;99.90;;;;;;4999487;28;20045;-80
2023/04/19 09:18:09;;;;;;;4.95;2.00;;;12.80;99.90;;;;;;5054887;28;20133;-82
2023/04/19 09:20:40;;;;;;;3.60;1.88;;;12.90;99.90;;;;;;5054260;28;20469;-79
2023/04/19 09:23:08;;;;;;;3.65;1.90;;;13.00;99.90;;;;;;5053319;28;20373;-80
2023/04/19 09:25:35;;;;;;;2.63;1.58;;;13.10;99.90;;;;;;5053922;28;20486;-83
2023/04/19 09:28:14;;;;;;;2.65;1.50;;;13.30;99.90;;;;;;5053190;28;20045;-83
2023/04/19 09:30:40;;;;;;;2.75;1.73;;;13.50;99.90;;;;;;5054186;28;20041;-82
2023/04/19 09:33:07;;;;;;;3.60;1.80;;;13.70;99.90;;;;;;5054561;28;20044;-82
2023/04/19 09:35:49;;;;;;;3.30;1.70;;;13.80;99.90;;;;;;5054830;28;20114;-88
2023/04/19 09:38:15;;;;;;;3.20;1.50;;;13.80;99.90;;;;;;5054783;28;20068;-83
2023/04/19 09:40:41;;;;;;;3.67;1.60;;;13.80;99.90;;;;;;5053865;28;20044;-78
2023/04/19 09:43:07;;;;;;;4.22;1.73;;;13.80;99.90;;;;;;5052633;28;20124;-81
2023/04/19 09:45:43;;;;;;;2.13;1.50;;;13.80;99.90;;;;;;5053601;28;20080;-79
2023/04/19 09:48:09;;;;;;;;;;;13.80;99.90;;;;;;5054077;28;20049;-76
2023/04/19 09:50:49;;;;;;;3.38;1.63;;;13.90;99.90;;;;;;5053520;28;19921;-76
2023/04/19 09:53:16;;;;;;;3.08;1.48;;;14.00;99.90;;;;;;5053130;28;20049;-79
2023/04/19 09:55:45;;;;;;;2.38;1.40;;;14.10;99.90;;;;;;5054011;28;20076;-77
2023/04/19 09:58:10;;;;;;;4.18;2.13;;;14.20;99.90;;;;;;5053031;28;20397;-76
2023/04/19 10:00:38;;;;;;;3.17;1.42;;;14.20;99.90;;;;;;5053317;28;20052;-78
2023/04/19 10:03:05;;;;;;;2.40;1.38;;;14.30;99.90;;;;;;5053364;28;20045;-80
2023/04/19 10:05:31;;;;;;;4.07;1.45;;;14.50;99.90;;;;;;5052167;28;20037;-79
2023/04/19 10:08:00;;;;;;;5.50;1.58;;;14.60;99.90;;;;;;5053299;28;20472;-79
2023/04/19 10:10:29;;;;;;;2.95;1.70;;;14.80;99.90;;;;;;5053560;28;20375;-79
2023/04/19 10:12:58;;;;;;;3.60;1.45;;;14.90;99.90;;;;;;5035563;28;20088;-77
2023/04/19 10:15:26;;;;;;;4.75;1.50;;;15.00;99.90;;;;;;5053040;28;20041;-79
2023/04/19 10:17:52;;;;;;;3.08;1.40;;;15.10;99.90;;;;;;5052290;28;20118;-73
2023/04/19 10:20:36;;;;;;;2.47;1.40;;;15.10;99.90;;;;;;5053124;28;20409;-72
2023/04/19 10:23:06;;;;;;;2.08;1.15;;;15.20;99.90;;;;;;5052895;28;20482;-72
2023/04/19 10:25:32;;;;;;;2.15;1.30;;;15.20;99.90;;;;;;5053315;28;20040;-76
2023/04/19 10:27:57;;;;;;;2.80;1.73;;;15.30;99.90;;;;;;5051631;28;20420;-79
2023/04/19 10:30:27;;;;;;;3.58;1.45;;;15.40;99.90;;;;;;5053592;28;20051;-77
2023/04/19 10:32:55;;;;;;;5.30;1.55;;;15.50;99.90;;;;;;5053539;28;20140;-77
2023/04/19 10:35:36;;;;;;;3.42;1.70;;;15.70;99.90;;;;;;5052844;28;20044;-77
2023/04/19 10:38:06;;;;;;;2.95;1.20;;;15.90;99.90;;;;;;5053540;28;20400;-74
2023/04/19 10:40:54;;;;;;;2.97;1.17;;;16.00;99.90;;;;;;5054059;28;20377;-75
2023/04/19 10:43:21;;;;;;;2.42;1.38;;;16.10;99.90;;;;;;5051690;28;20075;-75
2023/04/19 10:45:47;;;;;;;2.45;1.42;;;16.30;99.90;;;;;;5053670;28;20037;-75
2023/04/19 10:48:25;;;;;;;2.78;1.50;;;16.40;99.90;;;;;;5052986;28;20041;-75
2023/04/19 10:50:57;;;;;;;2.97;1.65;;;16.40;99.90;;;;;;5053022;28;20094;-75
2023/04/19 10:53:48;;;;;;;2.88;1.40;;;16.40;99.90;;;;;;5052923;28;20049;-75
2023/04/19 10:56:16;;;;;;;2.55;1.20;;;16.50;99.90;;;;;;5052782;28;20466;-84
2023/04/19 10:59:06;;;;;;;3.30;1.38;;;16.50;99.90;;;;;;5053632;28;20037;-82
2023/04/19 11:01:38;;;;;;;2.40;1.50;;;16.60;99.90;;;;;;5053571;28;20120;-77
2023/04/19 11:04:17;;;;;;;3.63;1.50;;;16.70;99.90;;;;;;5052907;28;20055;-81
2023/04/19 11:06:52;;;;;;;2.35;1.30;;;16.80;99.90;;;;;;5052561;28;20140;-80
2023/04/19 11:09:37;;;;;;;3.15;1.30;;;16.90;99.90;;;;;;5052748;28;20084;-79
2023/04/19 11:12:11;;;;;;;3.78;1.42;;;17.10;99.90;;;;;;5057188;28;20067;-80
2023/04/19 11:14:43;;;;;;;3.45;1.67;;;17.30;99.90;;;;;;5056595;28;20059;-76
2023/04/19 11:17:30;;;;;;;4.50;1.52;;;17.40;99.90;;;;;;5055964;28;20061;-74
2023/04/19 11:20:01;;;;;;;2.35;1.63;;;17.50;99.90;;;;;;5056470;28;20057;-74
2023/04/19 11:22:31;;;;;;;2.65;1.42;;;17.60;99.90;;;;;;5056338;28;20060;-74
2023/04/19 11:25:16;;;;;;;2.88;1.50;;;17.70;99.90;;;;;;5057047;28;20070;-74
2023/04/19 11:27:43;;;;;;;2.28;1.30;;;17.70;99.90;;;;;;5056341;28;20037;-75
2023/04/19 11:30:12;;;;;;;2.38;1.35;;;17.80;99.90;;;;;;5055098;28;20560;-74
2023/04/19 11:32:44;;;;;;;2.20;1.50;;;17.80;99.90;;;;;;5056126;28;20111;-74
2023/04/19 11:35:10;;;;;;;2.45;1.50;;;18.00;99.90;;;;;;5055799;28;20451;-75
2023/04/19 11:37:38;;;;;;;2.30;1.60;;;18.10;99.90;;;;;;5038464;28;20048;-74
2023/04/19 11:40:05;;;;;;;2.67;1.70;;;18.10;99.90;;;;;;5056040;28;20055;-75
2023/04/19 11:42:32;;;;;;;2.97;1.52;;;18.10;99.90;;;;;;5055931;28;20127;-75
2023/04/19 11:44:58;;;;;;;2.47;1.73;;;18.20;99.90;;;;;;5056352;28;20049;-74
2023/04/19 11:47:26;;;;;;;4.07;1.63;;;18.10;99.90;;;;;;5055878;28;20056;-74
2023/04/19 11:49:54;;;;;;;3.70;1.75;;;18.20;99.90;;;;;;5057031;28;20041;-74
2023/04/19 11:52:25;;;;;;;3.05;1.80;;;18.20;99.90;;;;;;5056779;28;20132;-74
2023/04/19 11:54:52;;;;;;;3.17;1.67;;;18.10;99.90;;;;;;5056677;28;20417;-74
2023/04/19 11:57:30;;;;;;;3.70;2.00;;;18.10;99.90;;;;;;5055939;28;20131;-74
2023/04/19 12:00:09;;;;;;;3.30;2.03;;;18.20;99.90;;;;;;5055761;28;20044;-74
2023/04/19 12:02:41;;;;;;;2.97;1.92;;;18.40;99.90;;;;;;5055176;28;20091;-75
2023/04/19 12:05:14;;;;;;;2.63;1.75;;;18.60;99.90;;;;;;5055284;28;20098;-74
2023/04/19 12:08:03;;;;;;;3.83;2.10;;;18.90;99.90;;;;;;5055493;28;20064;-74
2023/04/19 12:10:30;;;;;;;3.30;1.98;;;19.00;99.90;;;;;;5055293;28;20084;-74
2023/04/19 12:12:56;;;;;;;2.88;1.90;;;19.10;99.90;;;;;;5055465;28;20048;-74
2023/04/19 12:15:21;;;;;;;3.08;1.98;;;19.30;99.90;;;;;;5055279;28;20036;-75
2023/04/19 12:17:58;;;;;;;3.40;2.13;;;19.50;99.90;;;;;;5055166;28;20142;-74
2023/04/19 12:20:31;;;;;;;2.83;2.10;;;19.70;99.90;;;;;;5054332;28;20048;-73
2023/04/19 12:22:57;;;;;;;3.28;2.38;;;19.70;99.90;;;;;;5055616;28;20549;-74
2023/04/19 12:25:31;;;;;;;2.75;2.00;;;19.80;99.90;;;;;;5054017;28;20140;-73
2023/04/19 12:27:57;;;;;;;3.13;2.15;;;20.00;99.90;;;;;;5055613;28;20055;-79
2023/04/19 12:30:22;;;;;;;2.70;2.13;;;20.20;99.90;;;;;;5055107;28;20045;-74
2023/04/19 12:32:50;;;;;;;4.40;2.00;;;20.40;99.90;;;;;;5055063;28;20052;-75
2023/04/19 12:35:16;;;;;;;3.72;2.00;;;20.50;99.90;;;;;;5054619;28;20494;-76
2023/04/19 12:37:42;;;;;;;3.30;2.20;;;20.50;99.90;;;;;;5054812;28;20056;-81
2023/04/19 12:40:08;;;;;;;3.53;2.10;;;20.70;99.90;;;;;;5053525;28;20049;-73
2023/04/19 12:42:34;;;;;;;3.28;2.10;;;21.00;99.90;;;;;;5055566;28;20052;-73
2023/04/19 12:45:00;;;;;;;3.85;2.15;;;20.80;99.90;;;;;;5054706;28;20060;-73
2023/04/19 12:47:25;;;;;;;3.33;2.40;;;20.60;99.90;;;;;;5053494;28;20056;-75
2023/04/19 12:49:51;;;;;;;2.67;2.00;;;20.70;99.90;;;;;;5054741;28;20053;-74
2023/04/19 12:52:18;;;;;;;3.45;1.95;;;20.90;99.90;;;;;;5054962;28;20163;-73
2023/04/19 12:54:44;;;;;;;3.05;2.08;;;21.00;99.90;;;;;;5055014;28;20037;-74